Time;durP1;ratioP1;P1;durP2;ratioP2;P2;SDS_P1;SDS_P2;PMS_P1;PMS_P2;Temp;Humidity;BMP_temperature;BMP_pressure;BME280_temperature;BME280_humidity;BME280_pressure;Samples;Min_cycle;Max_cycle;Signal;HPM_P1;HPM_P2
2022/12/28 00:02:09;;;;;;;26.15;6.40;;;5.40;99.90;;;;;;5054904;28;20401;-81
2022/12/28 00:04:35;;;;;;;26.55;6.43;;;5.30;99.90;;;;;;5056234;28;20495;-82
2022/12/28 00:07:06;;;;;;;22.83;5.90;;;5.30;99.90;;;;;;5055839;28;20045;-82
2022/12/28 00:09:32;;;;;;;25.35;6.20;;;5.30;99.90;;;;;;5056090;28;20048;-81
2022/12/28 00:11:57;;;;;;;26.60;6.85;;;5.30;99.90;;;;;;5056236;28;20063;-81
2022/12/28 00:14:24;;;;;;;25.13;7.50;;;5.30;99.90;;;;;;5055030;28;20056;-82
2022/12/28 00:16:49;;;;;;;20.35;6.05;;;5.20;99.90;;;;;;5055648;28;20493;-84
2022/12/28 00:19:16;;;;;;;26.08;6.22;;;5.30;99.90;;;;;;5054033;28;20048;-79
2022/12/28 00:21:43;;;;;;;21.03;6.83;;;5.20;99.90;;;;;;5055812;28;20218;-80
2022/12/28 00:24:22;;;;;;;23.92;6.60;;;5.20;99.90;;;;;;5055465;28;20287;-78
2022/12/28 00:26:48;;;;;;;25.75;7.30;;;5.20;99.90;;;;;;5055016;28;20064;-83
2022/12/28 00:29:15;;;;;;;28.20;7.47;;;5.20;99.90;;;;;;5055291;28;20056;-82
2022/12/28 00:31:41;;;;;;;26.93;6.60;;;5.20;99.90;;;;;;5054597;28;20041;-81
2022/12/28 00:34:06;;;;;;;26.85;7.20;;;5.20;99.90;;;;;;5054362;28;20511;-78
2022/12/28 00:36:32;;;;;;;26.30;7.32;;;5.20;99.90;;;;;;5055167;28;20056;-79
2022/12/28 00:38:58;;;;;;;24.38;6.53;;;5.20;99.90;;;;;;5055372;28;20098;-79
2022/12/28 00:41:24;;;;;;;27.70;8.10;;;5.20;99.90;;;;;;5053538;28;20057;-80
2022/12/28 00:43:50;;;;;;;28.58;9.20;;;5.30;99.90;;;;;;5056179;28;20052;-80
2022/12/28 00:46:16;;;;;;;24.40;7.10;;;5.20;99.90;;;;;;5053691;28;20049;-80
2022/12/28 00:48:43;;;;;;;24.85;7.50;;;5.30;99.90;;;;;;5053503;28;20140;-79
2022/12/28 00:51:14;;;;;;;27.52;7.00;;;5.30;99.90;;;;;;5055031;28;20053;-80
2022/12/28 00:53:40;;;;;;;25.17;6.85;;;5.30;99.90;;;;;;5055453;28;20049;-79
2022/12/28 00:56:17;;;;;;;25.48;7.35;;;5.30;99.90;;;;;;5037557;28;20056;-77
2022/12/28 00:58:43;;;;;;;21.23;6.28;;;5.30;99.90;;;;;;5053777;28;20382;-80
2022/12/28 01:01:18;;;;;;;33.90;9.15;;;5.30;99.90;;;;;;5062448;28;20048;-77
2022/12/28 01:03:44;;;;;;;25.25;7.88;;;5.30;99.90;;;;;;5075164;28;20052;-81
2022/12/28 01:06:12;;;;;;;23.30;6.85;;;5.30;99.90;;;;;;5057808;28;20131;-79
2022/12/28 01:08:39;;;;;;;26.98;7.80;;;5.30;99.90;;;;;;5075312;28;20097;-80
2022/12/28 01:11:09;;;;;;;38.42;8.73;;;5.30;99.90;;;;;;5075781;28;20055;-77
2022/12/28 01:13:35;;;;;;;27.73;8.13;;;5.30;99.90;;;;;;5080224;28;20041;-79
2022/12/28 01:16:28;;;;;;;23.95;7.13;;;5.40;99.90;;;;;;5081577;28;20044;-83
2022/12/28 01:18:57;;;;;;;26.95;8.73;;;5.40;99.90;;;;;;5077615;28;20076;-82
2022/12/28 01:21:25;;;;;;;21.77;7.65;;;5.40;99.90;;;;;;5077740;28;20103;-79
2022/12/28 01:23:56;;;;;;;33.88;7.68;;;5.40;99.90;;;;;;5076450;28;20048;-81
2022/12/28 01:26:23;;;;;;;27.95;9.13;;;5.50;99.90;;;;;;5075983;28;20053;-81
2022/12/28 01:28:48;;;;;;;33.10;9.50;;;5.50;99.90;;;;;;5077377;28;20098;-76
2022/12/28 01:31:17;;;;;;;25.13;8.63;;;5.50;99.90;;;;;;5075024;28;20048;-81
2022/12/28 01:33:43;;;;;;;25.30;8.18;;;5.50;99.90;;;;;;5077422;28;20123;-81
2022/12/28 01:36:31;;;;;;;30.05;7.93;;;5.50;99.90;;;;;;5077627;28;20052;-80
2022/12/28 01:38:59;;;;;;;26.88;7.45;;;5.60;99.90;;;;;;5077902;28;20041;-79
2022/12/28 01:41:27;;;;;;;26.02;9.57;;;5.60;99.90;;;;;;5077495;28;20170;-79
2022/12/28 01:43:52;;;;;;;28.73;7.97;;;5.60;99.90;;;;;;5078603;28;20053;-77
2022/12/28 01:46:42;;;;;;;35.97;9.38;;;5.60;99.90;;;;;;5080805;28;20051;-80
2022/12/28 01:49:17;;;;;;;27.95;7.57;;;5.70;99.90;;;;;;5060791;28;20350;-82
2022/12/28 01:51:57;;;;;;;26.58;7.35;;;5.60;99.90;;;;;;5078397;28;20052;-80
2022/12/28 01:54:25;;;;;;;31.63;9.35;;;5.70;99.90;;;;;;5079046;28;20076;-82
2022/12/28 01:56:52;;;;;;;25.70;8.65;;;5.70;99.90;;;;;;5079224;28;20051;-80
2022/12/28 01:59:21;;;;;;;24.70;8.27;;;5.80;99.90;;;;;;5078380;28;20040;-82
2022/12/28 02:01:47;;;;;;;21.33;7.00;;;5.80;99.90;;;;;;5078734;28;20457;-82
2022/12/28 02:04:13;;;;;;;25.15;8.85;;;5.80;99.90;;;;;;5079159;28;20040;-82
2022/12/28 02:06:39;;;;;;;23.25;8.27;;;5.80;99.90;;;;;;5078762;28;20048;-76
2022/12/28 02:09:04;;;;;;;22.65;7.85;;;5.80;99.90;;;;;;5078110;28;20080;-80
2022/12/28 02:11:31;;;;;;;25.98;7.68;;;5.90;99.90;;;;;;5076498;28;20142;-81
2022/12/28 02:13:58;;;;;;;23.88;8.45;;;5.80;99.90;;;;;;5078100;28;20068;-80
2022/12/28 02:16:24;;;;;;;21.45;7.57;;;5.90;99.90;;;;;;5078308;28;20055;-80
2022/12/28 02:18:51;;;;;;;26.48;7.65;;;5.80;99.90;;;;;;5076377;28;20032;-81
2022/12/28 02:21:35;;;;;;;21.43;8.27;;;5.80;99.90;;;;;;5075536;28;20044;-78
2022/12/28 02:24:10;;;;;;;31.67;9.70;;;5.80;99.90;;;;;;5074002;28;20080;-80
2022/12/28 02:26:54;;;;;;;27.55;7.60;;;5.70;99.90;;;;;;5073765;28;20052;-81
2022/12/28 02:29:29;;;;;;;23.95;8.63;;;5.80;99.90;;;;;;5074786;28;20396;-82
2022/12/28 02:32:21;;;;;;;24.05;8.65;;;5.70;99.90;;;;;;5075023;28;20045;-82
2022/12/28 02:35:11;;;;;;;31.73;9.68;;;5.70;99.90;;;;;;5073685;28;20388;-80
2022/12/28 02:37:51;;;;;;;27.50;8.88;;;5.70;99.90;;;;;;5074559;28;20040;-82
2022/12/28 02:40:25;;;;;;;29.73;8.38;;;5.70;99.90;;;;;;5073738;28;20044;-80
2022/12/28 02:42:53;;;;;;;33.30;8.82;;;5.80;99.90;;;;;;5075118;28;20057;-79
2022/12/28 02:51:57;;;;;;;24.75;8.52;;;5.80;99.90;;;;;;5082271;28;20052;-81
2022/12/28 02:58:07;;;;;;;31.30;8.98;;;5.80;99.90;;;;;;5079073;28;20132;-79
2022/12/28 03:00:47;;;;;;;42.03;9.88;;;5.80;99.90;;;;;;5076441;28;20044;-79
2022/12/28 03:03:19;;;;;;;42.45;11.35;;;5.80;99.90;;;;;;5075131;28;20097;-80
2022/12/28 03:09:07;;;;;;;36.85;11.90;;;5.90;99.90;;;;;;5074597;28;20048;-79
2022/12/28 03:11:37;;;;;;;31.95;9.07;;;5.90;99.90;;;;;;5074090;28;20045;-80
2022/12/28 03:14:08;;;;;;;35.53;8.63;;;5.90;99.90;;;;;;5056305;28;20056;-81
2022/12/28 03:33:25;;;;;;;28.80;10.48;;;6.20;99.90;;;;;;5079773;28;20053;-80
2022/12/28 03:36:17;;;;;;;24.73;9.23;;;6.30;99.90;;;;;;5079382;28;20358;-83
2022/12/28 03:38:54;;;;;;;30.95;9.88;;;6.30;99.90;;;;;;5078786;28;20086;-81
2022/12/28 03:41:37;;;;;;;29.67;7.28;;;6.30;99.90;;;;;;5077012;28;20134;-79
2022/12/28 03:44:10;;;;;;;27.45;8.05;;;6.30;99.90;;;;;;5078057;28;20442;-80
2022/12/28 03:46:54;;;;;;;27.50;7.75;;;6.30;99.90;;;;;;5076988;28;20072;-79
2022/12/28 03:49:22;;;;;;;24.88;8.45;;;6.40;99.90;;;;;;5077522;28;20049;-80
2022/12/28 03:51:48;;;;;;;26.88;8.75;;;6.40;99.90;;;;;;5077717;28;20045;-76
2022/12/28 03:54:15;;;;;;;26.50;8.25;;;6.40;99.90;;;;;;5077181;28;20050;-77
2022/12/28 03:56:48;;;;;;;;;;;6.40;99.90;;;;;;5078244;28;20053;-78
2022/12/28 03:59:15;;;;;;;27.50;7.50;;;6.40;99.90;;;;;;5076967;28;19927;-79
2022/12/28 04:01:41;;;;;;;30.55;8.93;;;6.40;99.90;;;;;;5076653;28;20572;-77
2022/12/28 04:04:07;;;;;;;33.40;11.50;;;6.40;99.90;;;;;;5109457;28;20047;-77
2022/12/28 04:06:33;;;;;;;33.05;10.82;;;6.40;99.90;;;;;;5076511;28;20040;-78
2022/12/28 04:08:59;;;;;;;23.50;7.53;;;6.40;99.90;;;;;;5074867;28;20044;-80
2022/12/28 04:11:24;;;;;;;17.25;5.93;;;6.40;99.90;;;;;;5076357;28;20084;-77
2022/12/28 04:13:50;;;;;;;26.70;9.75;;;6.50;99.90;;;;;;5076908;28;20472;-82
2022/12/28 04:16:16;;;;;;;22.83;6.57;;;6.50;99.90;;;;;;5076822;28;20085;-79
2022/12/28 04:18:42;;;;;;;27.33;7.43;;;6.50;99.90;;;;;;5075499;28;20056;-80
2022/12/28 04:21:09;;;;;;;24.25;8.10;;;6.50;99.90;;;;;;5075491;28;20088;-80
2022/12/28 04:23:34;;;;;;;23.15;7.50;;;6.50;99.90;;;;;;5075971;28;20567;-80
2022/12/28 04:26:08;;;;;;;23.08;6.85;;;6.50;99.90;;;;;;5075930;28;20095;-78
2022/12/28 04:28:34;;;;;;;19.17;6.78;;;6.50;99.90;;;;;;5076897;28;20044;-78
2022/12/28 04:31:01;;;;;;;21.00;5.45;;;6.50;99.90;;;;;;5076122;28;20396;-81
2022/12/28 04:33:30;;;;;;;24.75;7.88;;;6.60;99.90;;;;;;5076295;28;20049;-81
2022/12/28 04:36:06;;;;;;;19.55;6.45;;;6.60;99.90;;;;;;5076581;28;20048;-82
2022/12/28 04:38:33;;;;;;;22.60;7.68;;;6.60;99.90;;;;;;5076303;28;20119;-82
2022/12/28 04:40:59;;;;;;;15.63;4.88;;;6.60;99.90;;;;;;5074994;28;20048;-76
2022/12/28 04:43:24;;;;;;;20.02;6.85;;;6.60;99.90;;;;;;5075968;28;20044;-82
2022/12/28 04:45:58;;;;;;;16.80;5.70;;;6.60;99.90;;;;;;5076540;28;20083;-79
2022/12/28 04:48:24;;;;;;;18.85;5.78;;;6.60;99.90;;;;;;5076305;28;20061;-82
2022/12/28 04:50:51;;;;;;;21.08;6.63;;;6.60;99.90;;;;;;5075226;28;20480;-82
2022/12/28 04:53:16;;;;;;;22.88;6.70;;;6.70;99.90;;;;;;5076750;28;20510;-81
2022/12/28 04:55:42;;;;;;;19.05;6.13;;;6.70;99.90;;;;;;5074799;28;20094;-82
2022/12/28 04:58:08;;;;;;;20.88;6.18;;;6.70;99.90;;;;;;5075464;28;20044;-81
2022/12/28 05:00:34;;;;;;;18.65;6.20;;;6.70;99.90;;;;;;5058642;28;20056;-79
2022/12/28 05:02:59;;;;;;;25.38;8.13;;;6.70;99.90;;;;;;5075945;28;20435;-82
2022/12/28 05:05:26;;;;;;;24.50;7.38;;;6.80;99.90;;;;;;5075679;28;20067;-78
2022/12/28 05:07:52;;;;;;;22.77;6.60;;;6.80;99.90;;;;;;5057683;28;20052;-80
2022/12/28 05:10:18;;;;;;;25.95;8.13;;;6.80;99.90;;;;;;5058279;28;20056;-82
2022/12/28 05:12:44;;;;;;;21.92;7.03;;;6.80;99.90;;;;;;5074989;28;20044;-82
2022/12/28 05:15:10;;;;;;;24.98;7.05;;;6.90;99.90;;;;;;5075809;28;20167;-82
2022/12/28 05:17:36;;;;;;;19.33;5.72;;;6.90;99.90;;;;;;5075509;28;20049;-82
2022/12/28 05:20:03;;;;;;;25.80;7.85;;;6.90;99.90;;;;;;5075048;28;20054;-77
2022/12/28 05:22:28;;;;;;;24.63;7.40;;;6.90;99.90;;;;;;5075275;28;20045;-79
2022/12/28 05:24:54;;;;;;;26.02;8.50;;;6.90;99.90;;;;;;5075047;28;20048;-78
2022/12/28 05:27:20;;;;;;;21.85;7.70;;;7.00;99.90;;;;;;5074354;28;20397;-79
2022/12/28 05:29:46;;;;;;;19.63;6.90;;;7.00;99.90;;;;;;5075319;28;20045;-78
2022/12/28 05:32:11;;;;;;;22.73;7.68;;;7.00;99.90;;;;;;5075259;28;20131;-81
2022/12/28 05:34:37;;;;;;;23.92;8.48;;;7.00;99.90;;;;;;5075197;28;20385;-79
2022/12/28 05:37:03;;;;;;;23.60;8.18;;;7.10;99.90;;;;;;5075309;28;20088;-79
2022/12/28 05:39:29;;;;;;;26.50;7.95;;;7.10;99.90;;;;;;5074780;28;20450;-80
2022/12/28 05:41:58;;;;;;;22.52;7.65;;;7.10;99.90;;;;;;5076177;28;20041;-82
2022/12/28 05:44:26;;;;;;;22.92;7.50;;;7.10;99.90;;;;;;5078427;28;20067;-79
2022/12/28 05:46:51;;;;;;;;;;;7.10;99.90;;;;;;5078014;28;20127;-76
2022/12/28 05:49:17;;;;;;;23.38;7.90;;;7.20;99.90;;;;;;5073733;28;20318;-77
2022/12/28 05:51:43;;;;;;;25.98;8.18;;;7.20;99.90;;;;;;5074579;28;20056;-77
2022/12/28 05:54:09;;;;;;;30.92;9.75;;;7.20;99.90;;;;;;5072879;28;20044;-80
2022/12/28 05:56:34;;;;;;;29.08;8.32;;;7.30;99.90;;;;;;5073809;28;20523;-78
2022/12/28 05:59:04;;;;;;;28.20;9.75;;;7.30;99.90;;;;;;5073382;28;20396;-79
2022/12/28 06:01:32;;;;;;;30.80;10.80;;;7.30;99.90;;;;;;5073741;28;20086;-81
2022/12/28 06:04:03;;;;;;;30.85;9.02;;;7.30;99.90;;;;;;5056978;28;20048;-78
2022/12/28 06:06:31;;;;;;;31.20;9.38;;;7.30;99.90;;;;;;5056965;28;20048;-77
2022/12/28 06:08:57;;;;;;;24.35;8.63;;;7.40;99.90;;;;;;5074580;28;20040;-79
2022/12/28 06:11:25;;;;;;;31.65;10.60;;;7.50;99.90;;;;;;5072713;28;20373;-78
2022/12/28 06:13:51;;;;;;;28.52;9.52;;;7.40;99.90;;;;;;5073008;28;20044;-80
2022/12/28 06:16:23;;;;;;;19.27;6.47;;;7.40;99.90;;;;;;5074328;28;20044;-80
2022/12/28 06:18:51;;;;;;;29.70;9.30;;;7.50;99.90;;;;;;5073344;28;20123;-80
2022/12/28 06:21:21;;;;;;;33.22;10.23;;;7.40;99.90;;;;;;5074757;28;20380;-78
2022/12/28 06:23:47;;;;;;;39.50;12.07;;;7.50;99.90;;;;;;5073870;28;20076;-78
2022/12/28 06:26:15;;;;;;;34.13;10.85;;;7.50;99.90;;;;;;5073081;28;20045;-82
2022/12/28 06:28:41;;;;;;;32.35;10.13;;;7.50;99.90;;;;;;5073846;28;20048;-81
2022/12/28 06:31:13;;;;;;;39.35;11.65;;;7.50;99.90;;;;;;5073944;28;20132;-82
2022/12/28 06:33:39;;;;;;;32.22;10.32;;;7.50;99.90;;;;;;5073693;28;20515;-79
2022/12/28 06:36:17;;;;;;;39.97;12.85;;;7.60;99.90;;;;;;5074377;28;20052;-78
2022/12/28 06:38:43;;;;;;;41.00;12.43;;;7.60;99.90;;;;;;5073462;28;20477;-78
2022/12/28 06:41:11;;;;;;;37.57;11.60;;;7.60;99.90;;;;;;5073520;28;20041;-79
2022/12/28 06:43:38;;;;;;;38.63;11.55;;;7.60;99.90;;;;;;5073636;28;20359;-78
2022/12/28 06:46:05;;;;;;;37.70;12.45;;;7.70;99.90;;;;;;5072392;28;20044;-76
2022/12/28 06:48:32;;;;;;;40.00;11.73;;;7.70;99.90;;;;;;5073203;28;20059;-78
2022/12/28 06:51:13;;;;;;;28.50;9.18;;;7.70;99.90;;;;;;5074358;28;20106;-80
2022/12/28 06:53:38;;;;;;;36.67;12.27;;;7.80;99.90;;;;;;5074126;28;20048;-81
2022/12/28 06:56:07;;;;;;;43.85;15.50;;;7.70;99.90;;;;;;5072758;28;20146;-80
2022/12/28 06:58:33;;;;;;;38.78;12.52;;;7.80;99.90;;;;;;5073725;28;20444;-79
2022/12/28 07:01:07;;;;;;;35.55;12.48;;;7.80;99.90;;;;;;5073621;28;20041;-81
2022/12/28 07:03:32;;;;;;;42.80;12.55;;;7.80;99.90;;;;;;5073980;28;20052;-78
2022/12/28 07:06:00;;;;;;;46.60;14.07;;;7.80;99.90;;;;;;5077683;28;20052;-78
2022/12/28 07:08:26;;;;;;;40.25;12.57;;;7.80;99.90;;;;;;5077601;28;20045;-81
2022/12/28 07:10:52;;;;;;;41.75;13.05;;;7.80;99.90;;;;;;5077574;28;20147;-80
2022/12/28 07:13:18;;;;;;;41.05;12.20;;;7.90;99.90;;;;;;5077683;28;20044;-80
2022/12/28 07:15:44;;;;;;;42.53;13.52;;;7.90;99.90;;;;;;5077503;28;20044;-80
2022/12/28 07:18:09;;;;;;;42.40;13.20;;;7.90;99.90;;;;;;5077933;28;20052;-79
2022/12/28 07:20:35;;;;;;;45.50;13.95;;;7.90;99.90;;;;;;5078129;28;20139;-79
2022/12/28 07:23:01;;;;;;;43.13;13.95;;;7.90;99.90;;;;;;5060475;28;20054;-78
2022/12/28 07:25:26;;;;;;;44.28;13.27;;;7.90;99.90;;;;;;5094731;28;20127;-77
2022/12/28 07:27:52;;;;;;;46.33;13.10;;;7.90;99.90;;;;;;5077800;28;20456;-79
2022/12/28 07:30:18;;;;;;;34.05;10.93;;;7.90;99.90;;;;;;5077830;28;20044;-80
2022/12/28 07:32:43;;;;;;;43.35;15.85;;;8.00;99.90;;;;;;5077571;28;20041;-79
2022/12/28 07:35:09;;;;;;;43.08;14.65;;;8.00;99.90;;;;;;5060545;28;20036;-79
2022/12/28 07:37:35;;;;;;;47.15;13.88;;;8.00;99.90;;;;;;5059936;28;20048;-77
2022/12/28 07:40:01;;;;;;;52.22;15.32;;;8.00;99.90;;;;;;5077617;28;20093;-80
2022/12/28 07:42:30;;;;;;;43.33;14.00;;;8.00;99.90;;;;;;5077468;28;20056;-77
2022/12/28 07:44:56;;;;;;;48.75;16.98;;;8.00;99.90;;;;;;5077745;28;20045;-80
2022/12/28 07:47:22;;;;;;;51.45;15.40;;;8.00;99.90;;;;;;5059230;28;20059;-80
2022/12/28 07:49:47;;;;;;;41.67;13.18;;;8.00;99.90;;;;;;5062347;28;20091;-77
2022/12/28 07:52:13;;;;;;;46.85;14.88;;;8.10;99.90;;;;;;5088987;28;20048;-79
2022/12/28 07:54:39;;;;;;;52.20;15.85;;;8.10;99.90;;;;;;5088073;28;20040;-81
2022/12/28 07:57:04;;;;;;;47.20;14.77;;;8.10;99.90;;;;;;5087922;28;20054;-80
2022/12/28 07:59:30;;;;;;;43.55;14.10;;;8.10;99.90;;;;;;5084627;28;20044;-79
2022/12/28 08:01:56;;;;;;;37.95;12.00;;;8.10;99.90;;;;;;5084013;28;20095;-78
2022/12/28 08:04:22;;;;;;;45.70;14.73;;;8.20;99.90;;;;;;5114859;28;20105;-79
2022/12/28 08:06:48;;;;;;;46.38;15.98;;;8.20;99.90;;;;;;5060477;28;20055;-80
2022/12/28 08:09:14;;;;;;;51.75;14.60;;;8.20;99.90;;;;;;5076651;28;20044;-77
2022/12/28 08:11:42;;;;;;;49.28;15.43;;;8.20;99.90;;;;;;5075280;28;20048;-80
2022/12/28 08:14:09;;;;;;;42.20;13.07;;;8.20;99.90;;;;;;5076585;28;20131;-79
2022/12/28 08:16:37;;;;;;;50.28;14.25;;;8.20;99.90;;;;;;5075226;28;20044;-78
2022/12/28 08:19:04;;;;;;;43.85;14.40;;;8.20;99.90;;;;;;5076134;28;20361;-82
2022/12/28 08:21:36;;;;;;;47.55;15.30;;;8.20;99.90;;;;;;5076177;28;20402;-80
2022/12/28 08:24:02;;;;;;;45.80;13.88;;;8.20;99.90;;;;;;5076684;28;20105;-80
2022/12/28 08:26:34;;;;;;;39.50;12.93;;;8.20;99.90;;;;;;5076077;28;20044;-79
2022/12/28 08:29:02;;;;;;;43.70;13.43;;;8.20;99.90;;;;;;5074852;28;20302;-78
2022/12/28 08:31:31;;;;;;;47.45;13.68;;;8.20;99.90;;;;;;5074653;28;20094;-79
2022/12/28 08:33:59;;;;;;;40.33;12.13;;;8.10;99.90;;;;;;5075706;28;20511;-80
2022/12/28 08:36:25;;;;;;;38.35;10.63;;;8.10;99.90;;;;;;5075823;28;20150;-80
2022/12/28 08:38:52;;;;;;;34.92;10.70;;;8.20;99.90;;;;;;5076124;28;20056;-77
2022/12/28 08:41:23;;;;;;;39.28;12.05;;;8.20;99.90;;;;;;5075135;28;20090;-79
2022/12/28 08:43:50;;;;;;;39.13;10.90;;;8.20;99.90;;;;;;5076463;28;20045;-78
2022/12/28 08:46:28;;;;;;;38.38;11.75;;;8.20;99.90;;;;;;5076202;28;20045;-78
2022/12/28 08:48:55;;;;;;;40.65;11.45;;;8.20;99.90;;;;;;5074475;28;20071;-79
2022/12/28 08:51:25;;;;;;;35.53;11.00;;;8.20;99.90;;;;;;5059045;28;20365;-80
2022/12/28 08:53:51;;;;;;;34.08;11.07;;;8.20;99.90;;;;;;5076042;28;20194;-81
2022/12/28 08:56:26;;;;;;;33.67;11.20;;;8.30;99.90;;;;;;5075878;28;20044;-80
2022/12/28 08:58:53;;;;;;;30.55;9.35;;;8.30;99.90;;;;;;5075940;28;20095;-78
2022/12/28 09:01:23;;;;;;;33.53;11.48;;;8.30;99.90;;;;;;5075528;28;20117;-79
2022/12/28 09:03:51;;;;;;;39.55;11.23;;;8.30;99.90;;;;;;5075764;28;20131;-78
2022/12/28 09:06:20;;;;;;;29.60;8.95;;;8.30;99.90;;;;;;5075665;28;20040;-78
2022/12/28 09:08:51;;;;;;;33.20;10.65;;;8.30;99.90;;;;;;5074607;28;20483;-80
2022/12/28 09:11:17;;;;;;;35.75;10.52;;;8.30;99.90;;;;;;5074289;28;20126;-80
2022/12/28 09:13:43;;;;;;;36.97;10.98;;;8.30;99.90;;;;;;5075892;28;20373;-78
2022/12/28 09:16:14;;;;;;;30.77;9.75;;;8.40;99.90;;;;;;5077056;28;20055;-81
2022/12/28 09:18:42;;;;;;;35.72;10.43;;;8.40;99.90;;;;;;5075460;28;20048;-79
2022/12/28 09:21:10;;;;;;;35.17;10.85;;;8.40;99.90;;;;;;5076529;28;20055;-79
2022/12/28 09:23:36;;;;;;;33.03;10.70;;;8.40;99.90;;;;;;5076514;28;20047;-81
2022/12/28 09:26:04;;;;;;;34.33;10.35;;;8.40;99.90;;;;;;5075659;28;20135;-80
2022/12/28 09:28:30;;;;;;;36.10;10.68;;;8.50;99.90;;;;;;5073778;28;20087;-82
2022/12/28 09:30:55;;;;;;;42.20;11.00;;;8.50;99.90;;;;;;5075923;28;20103;-79
2022/12/28 09:36:05;;;;;;;29.75;9.00;;;8.50;99.90;;;;;;5076293;28;20052;-83
2022/12/28 09:38:31;;;;;;;46.22;14.43;;;8.50;99.90;;;;;;5074220;28;20051;-79
2022/12/28 09:40:57;;;;;;;37.97;11.90;;;8.60;99.90;;;;;;5076424;28;20386;-80
2022/12/28 09:43:25;;;;;;;41.60;12.40;;;8.60;99.90;;;;;;5076564;28;20393;-79
2022/12/28 09:45:54;;;;;;;45.03;13.88;;;8.60;99.90;;;;;;5073334;28;20071;-81
2022/12/28 09:48:25;;;;;;;44.63;12.00;;;8.60;99.90;;;;;;5073363;28;20447;-80
2022/12/28 09:50:51;;;;;;;40.63;11.98;;;8.60;99.90;;;;;;5075306;28;20139;-79
2022/12/28 09:53:30;;;;;;;43.50;12.23;;;8.60;99.90;;;;;;5073501;28;20122;-80
2022/12/28 09:56:00;;;;;;;44.15;12.05;;;8.60;99.90;;;;;;5075144;28;20045;-80
2022/12/28 09:58:27;;;;;;;49.92;14.40;;;8.60;99.90;;;;;;5073539;28;20052;-80
2022/12/28 10:00:59;;;;;;;41.58;11.57;;;8.60;99.90;;;;;;5074697;28;20449;-79
2022/12/28 10:03:41;;;;;;;38.10;11.88;;;8.60;99.90;;;;;;5073633;28;20052;-80
2022/12/28 10:06:22;;;;;;;40.00;11.63;;;8.60;99.90;;;;;;5074517;28;20044;-81
2022/12/28 10:08:50;;;;;;;37.42;11.25;;;8.70;99.90;;;;;;5056670;28;20047;-80
2022/12/28 10:11:27;;;;;;;44.42;12.15;;;8.70;99.90;;;;;;5056110;28;20484;-80
2022/12/28 10:13:56;;;;;;;33.17;9.95;;;8.60;99.90;;;;;;5074643;28;20123;-77
2022/12/28 10:16:23;;;;;;;37.33;11.65;;;8.70;99.90;;;;;;5073956;28;20132;-78
2022/12/28 10:18:49;;;;;;;;;;;8.60;99.90;;;;;;5075047;28;20045;-79
2022/12/28 10:21:18;;;;;;;33.50;9.80;;;8.70;99.90;;;;;;5074054;28;20317;-82
2022/12/28 10:23:47;;;;;;;35.95;9.70;;;8.70;99.90;;;;;;5072939;28;20059;-80
2022/12/28 10:26:16;;;;;;;32.35;8.70;;;8.70;99.90;;;;;;5072932;28;20384;-78
2022/12/28 10:28:56;;;;;;;32.55;10.07;;;8.70;99.90;;;;;;5073347;28;20473;-81
2022/12/28 10:31:37;;;;;;;30.55;9.25;;;8.80;99.90;;;;;;5073487;28;20044;-79
2022/12/28 10:34:21;;;;;;;27.65;8.30;;;8.80;99.90;;;;;;5074543;28;20481;-79
2022/12/28 10:36:48;;;;;;;30.83;8.05;;;8.80;99.90;;;;;;5072588;28;20055;-78
2022/12/28 10:39:26;;;;;;;32.80;9.25;;;8.90;99.90;;;;;;5072160;28;20032;-80
2022/12/28 10:41:53;;;;;;;31.30;8.23;;;8.80;99.90;;;;;;5073391;28;20503;-79
2022/12/28 10:44:30;;;;;;;28.63;7.65;;;8.90;99.90;;;;;;5073730;28;20091;-79
2022/12/28 10:46:56;;;;;;;31.52;8.25;;;8.80;99.90;;;;;;5072199;28;20101;-80
2022/12/28 10:49:26;;;;;;;30.80;8.23;;;8.80;99.90;;;;;;5074308;28;20443;-79
2022/12/28 10:52:25;;;;;;;21.45;6.35;;;8.90;99.90;;;;;;5073231;28;20048;-79
2022/12/28 10:54:51;;;;;;;26.33;7.07;;;8.80;99.90;;;;;;5061336;28;20061;-80
2022/12/28 10:57:19;;;;;;;30.25;8.32;;;8.90;99.90;;;;;;5074243;28;20040;-79
2022/12/28 10:59:45;;;;;;;28.40;7.60;;;8.80;99.90;;;;;;5073673;28;20435;-78
2022/12/28 11:02:25;;;;;;;24.77;7.43;;;8.90;99.90;;;;;;5074449;28;20380;-78
2022/12/28 11:04:56;;;;;;;26.60;7.20;;;8.80;99.90;;;;;;5073935;28;20045;-80
2022/12/28 11:07:34;;;;;;;23.05;6.65;;;8.80;99.90;;;;;;5073390;28;20064;-79
2022/12/28 11:10:22;;;;;;;27.17;7.40;;;8.90;99.90;;;;;;5073375;28;20080;-79
2022/12/28 11:12:49;;;;;;;24.70;6.50;;;8.90;99.90;;;;;;5073443;28;20125;-79
2022/12/28 11:15:20;;;;;;;25.42;6.80;;;8.90;99.90;;;;;;5073521;28;20041;-81
2022/12/28 11:17:56;;;;;;;21.48;7.60;;;8.90;99.90;;;;;;5074527;28;20290;-80
2022/12/28 11:20:30;;;;;;;21.30;7.72;;;8.90;99.90;;;;;;5074396;28;20048;-78
2022/12/28 11:22:56;;;;;;;19.83;6.35;;;8.90;99.90;;;;;;5073932;28;20056;-79
2022/12/28 11:25:30;;;;;;;21.23;7.13;;;8.90;99.90;;;;;;5072245;28;20503;-80
2022/12/28 11:27:57;;;;;;;19.02;5.85;;;8.90;99.90;;;;;;5073574;28;20040;-79
2022/12/28 11:30:23;;;;;;;21.65;7.15;;;8.90;99.90;;;;;;5073394;28;20087;-79
2022/12/28 11:32:53;;;;;;;22.90;6.07;;;8.90;99.90;;;;;;5073321;28;20048;-79
2022/12/28 11:35:22;;;;;;;23.48;6.53;;;8.90;99.90;;;;;;5072245;28;20051;-82
2022/12/28 11:37:57;;;;;;;21.30;6.25;;;9.00;99.90;;;;;;5073316;28;20163;-79
2022/12/28 11:40:49;;;;;;;17.17;4.88;;;9.00;99.90;;;;;;5072567;28;20040;-81
2022/12/28 11:43:27;;;;;;;18.13;6.47;;;9.00;99.90;;;;;;5072658;28;20048;-77
2022/12/28 11:45:58;;;;;;;22.05;6.47;;;9.00;99.90;;;;;;5072852;28;20129;-80
2022/12/28 11:48:42;;;;;;;19.45;5.53;;;9.00;99.90;;;;;;5073036;28;20536;-80
2022/12/28 11:51:18;;;;;;;22.13;5.25;;;9.00;99.90;;;;;;5073619;28;20057;-79
2022/12/28 11:53:44;;;;;;;16.88;4.97;;;9.00;99.90;;;;;;5077168;28;20045;-80
2022/12/28 11:56:18;;;;;;;18.02;5.63;;;8.90;99.90;;;;;;5077585;28;20063;-78
2022/12/28 11:58:59;;;;;;;19.98;6.30;;;9.00;99.90;;;;;;5075544;28;20439;-80
2022/12/28 12:01:35;;;;;;;17.75;5.32;;;9.00;99.90;;;;;;5076414;28;20480;-79
2022/12/28 12:04:04;;;;;;;19.85;6.07;;;8.90;99.90;;;;;;5076583;28;20052;-80
2022/12/28 12:06:42;;;;;;;22.33;6.30;;;8.90;99.90;;;;;;5076568;28;20044;-79
2022/12/28 12:09:28;;;;;;;19.85;5.18;;;8.90;99.90;;;;;;5076553;28;20036;-77
2022/12/28 12:11:57;;;;;;;17.67;4.97;;;8.90;99.90;;;;;;5077207;28;20048;-78
2022/12/28 12:14:31;;;;;;;18.88;5.03;;;8.80;99.90;;;;;;5075640;28;20056;-79
2022/12/28 12:17:03;;;;;;;23.08;7.65;;;8.90;99.90;;;;;;5077356;28;20432;-80
2022/12/28 12:19:33;;;;;;;18.42;4.68;;;8.80;99.90;;;;;;5075661;28;20048;-78
2022/12/28 12:22:03;;;;;;;17.25;5.35;;;8.80;99.90;;;;;;5075586;28;20056;-79
2022/12/28 12:24:41;;;;;;;16.33;5.55;;;8.90;99.90;;;;;;5059203;28;20370;-79
2022/12/28 12:27:25;;;;;;;14.18;4.90;;;8.90;99.90;;;;;;5076921;28;20393;-80
2022/12/28 12:29:59;;;;;;;13.13;5.20;;;8.90;99.90;;;;;;5076348;28;20082;-80
2022/12/28 12:32:40;;;;;;;12.55;4.13;;;8.80;99.90;;;;;;5076616;28;20059;-79
2022/12/28 12:35:11;;;;;;;15.00;4.45;;;8.90;99.90;;;;;;5058048;28;20044;-79
2022/12/28 12:37:43;;;;;;;12.00;4.05;;;8.90;99.90;;;;;;5076070;28;20044;-76
2022/12/28 12:40:35;;;;;;;17.88;3.92;;;8.80;99.90;;;;;;5074838;28;20040;-78
2022/12/28 12:43:22;;;;;;;12.85;3.70;;;8.90;99.90;;;;;;5067249;28;20056;-79
2022/12/28 12:45:53;;;;;;;9.65;4.03;;;8.80;99.90;;;;;;5078961;28;20055;-78
2022/12/28 12:48:31;;;;;;;14.65;3.53;;;8.80;99.90;;;;;;5076990;28;20544;-79
2022/12/28 12:51:03;;;;;;;11.18;3.80;;;8.90;99.90;;;;;;5076389;28;20071;-80
2022/12/28 12:53:38;;;;;;;14.15;3.90;;;8.80;99.90;;;;;;5076296;28;20044;-79
2022/12/28 12:56:29;;;;;;;11.90;2.95;;;8.90;99.90;;;;;;5076040;28;20132;-76
2022/12/28 12:59:26;;;;;;;11.82;3.17;;;8.80;99.90;;;;;;5078909;28;20049;-79
2022/12/28 13:02:04;;;;;;;12.00;3.22;;;8.90;99.90;;;;;;5083674;28;20048;-78
2022/12/28 13:04:34;;;;;;;8.40;2.38;;;8.90;99.90;;;;;;5085984;28;20074;-77
2022/12/28 13:07:02;;;;;;;11.95;2.53;;;8.90;99.90;;;;;;5085691;28;20049;-78
2022/12/28 13:09:31;;;;;;;10.25;2.97;;;8.90;99.90;;;;;;5084762;28;20380;-77
2022/12/28 13:11:58;;;;;;;7.65;2.05;;;8.90;99.90;;;;;;5084145;28;20544;-78
2022/12/28 13:14:24;;;;;;;10.30;2.85;;;8.90;99.90;;;;;;5080314;28;20044;-79
2022/12/28 13:16:56;;;;;;;13.40;3.40;;;8.90;99.90;;;;;;5079708;28;20051;-78
2022/12/28 13:19:25;;;;;;;10.52;2.90;;;8.90;99.90;;;;;;5078246;28;20114;-76
2022/12/28 13:21:52;;;;;;;8.45;2.40;;;8.90;99.90;;;;;;5081379;28;20393;-78
2022/12/28 13:24:28;;;;;;;10.18;3.03;;;8.90;99.90;;;;;;5078929;28;20127;-78
2022/12/28 13:26:56;;;;;;;9.13;2.78;;;8.90;99.90;;;;;;5075834;28;20052;-77
2022/12/28 13:29:30;;;;;;;9.13;2.90;;;8.90;99.90;;;;;;5058097;28;20333;-77
2022/12/28 13:31:56;;;;;;;10.63;2.70;;;8.90;99.90;;;;;;5076244;28;20171;-79
2022/12/28 13:34:28;;;;;;;8.00;2.95;;;8.90;99.90;;;;;;5077136;28;20080;-78